sensor_id;sensor_type;location;lat;lon;timestamp;P1;durP1;ratioP1;P2;durP2;ratioP2
69047;SDS011;56119;50.118;8.642;2023-09-19T00:00:41;4.05;;;2.33;;
69047;SDS011;56119;50.118;8.642;2023-09-19T00:03:08;5.53;;;1.75;;
69047;SDS011;56119;50.118;8.642;2023-09-19T00:05:35;4.20;;;1.60;;
69047;SDS011;56119;50.118;8.642;2023-09-19T00:08:01;2.70;;;1.40;;
69047;SDS011;56119;50.118;8.642;2023-09-19T00:10:29;2.10;;;1.23;;
69047;SDS011;56119;50.118;8.642;2023-09-19T00:12:56;3.63;;;1.58;;
69047;SDS011;56119;50.118;8.642;2023-09-19T00:15:24;3.38;;;1.67;;
69047;SDS011;56119;50.118;8.642;2023-09-19T00:17:51;4.88;;;2.05;;
69047;SDS011;56119;50.118;8.642;2023-09-19T00:20:17;4.07;;;1.70;;
69047;SDS011;56119;50.118;8.642;2023-09-19T00:22:43;5.35;;;2.08;;
69047;SDS011;56119;50.118;8.642;2023-09-19T00:25:10;5.00;;;1.73;;
69047;SDS011;56119;50.118;8.642;2023-09-19T00:27:37;5.22;;;1.90;;
69047;SDS011;56119;50.118;8.642;2023-09-19T00:30:08;7.20;;;1.98;;
69047;SDS011;56119;50.118;8.642;2023-09-19T00:32:44;7.65;;;1.70;;
69047;SDS011;56119;50.118;8.642;2023-09-19T00:35:12;4.38;;;1.70;;
69047;SDS011;56119;50.118;8.642;2023-09-19T00:37:39;3.83;;;1.40;;
69047;SDS011;56119;50.118;8.642;2023-09-19T00:40:05;5.40;;;1.55;;
69047;SDS011;56119;50.118;8.642;2023-09-19T00:42:32;3.67;;;1.67;;
69047;SDS011;56119;50.118;8.642;2023-09-19T00:44:58;3.60;;;1.58;;
69047;SDS011;56119;50.118;8.642;2023-09-19T00:47:28;4.10;;;1.80;;
69047;SDS011;56119;50.118;8.642;2023-09-19T00:49:54;6.80;;;1.95;;
69047;SDS011;56119;50.118;8.642;2023-09-19T00:52:21;4.70;;;1.98;;
69047;SDS011;56119;50.118;8.642;2023-09-19T00:54:48;2.60;;;1.50;;
69047;SDS011;56119;50.118;8.642;2023-09-19T00:57:15;3.17;;;1.95;;
69047;SDS011;56119;50.118;8.642;2023-09-19T00:59:42;3.78;;;1.67;;
69047;SDS011;56119;50.118;8.642;2023-09-19T01:02:08;3.45;;;1.65;;
69047;SDS011;56119;50.118;8.642;2023-09-19T01:04:35;3.83;;;1.80;;
69047;SDS011;56119;50.118;8.642;2023-09-19T01:07:02;4.03;;;1.90;;
69047;SDS011;56119;50.118;8.642;2023-09-19T01:09:28;3.85;;;1.67;;
69047;SDS011;56119;50.118;8.642;2023-09-19T01:11:56;3.92;;;1.83;;
69047;SDS011;56119;50.118;8.642;2023-09-19T01:16:56;3.45;;;2.05;;
69047;SDS011;56119;50.118;8.642;2023-09-19T01:27:32;4.35;;;1.50;;
69047;SDS011;56119;50.118;8.642;2023-09-19T01:30:11;2.97;;;1.85;;
69047;SDS011;56119;50.118;8.642;2023-09-19T01:32:38;6.70;;;1.83;;
69047;SDS011;56119;50.118;8.642;2023-09-19T01:35:06;4.30;;;1.80;;
69047;SDS011;56119;50.118;8.642;2023-09-19T01:37:37;4.72;;;1.80;;
69047;SDS011;56119;50.118;8.642;2023-09-19T01:40:04;5.45;;;2.15;;
69047;SDS011;56119;50.118;8.642;2023-09-19T01:45:33;4.95;;;1.95;;
69047;SDS011;56119;50.118;8.642;2023-09-19T01:48:09;3.25;;;1.70;;
69047;SDS011;56119;50.118;8.642;2023-09-19T01:50:47;3.55;;;2.08;;
69047;SDS011;56119;50.118;8.642;2023-09-19T01:53:27;3.00;;;1.60;;
69047;SDS011;56119;50.118;8.642;2023-09-19T01:55:53;3.88;;;1.85;;
69047;SDS011;56119;50.118;8.642;2023-09-19T01:58:20;5.45;;;2.00;;
69047;SDS011;56119;50.118;8.642;2023-09-19T02:00:48;6.22;;;1.85;;
69047;SDS011;56119;50.118;8.642;2023-09-19T02:03:18;3.58;;;1.70;;
69047;SDS011;56119;50.118;8.642;2023-09-19T02:05:50;3.40;;;1.70;;
69047;SDS011;56119;50.118;8.642;2023-09-19T02:08:18;4.15;;;1.88;;
69047;SDS011;56119;50.118;8.642;2023-09-19T02:10:44;6.03;;;2.17;;
69047;SDS011;56119;50.118;8.642;2023-09-19T02:13:17;4.07;;;2.58;;
69047;SDS011;56119;50.118;8.642;2023-09-19T02:15:44;3.38;;;2.20;;
69047;SDS011;56119;50.118;8.642;2023-09-19T02:18:10;4.35;;;2.50;;
69047;SDS011;56119;50.118;8.642;2023-09-19T02:20:55;3.90;;;1.98;;
69047;SDS011;56119;50.118;8.642;2023-09-19T02:23:39;4.05;;;2.03;;
69047;SDS011;56119;50.118;8.642;2023-09-19T02:26:06;4.20;;;2.17;;
69047;SDS011;56119;50.118;8.642;2023-09-19T02:28:39;5.38;;;2.55;;
69047;SDS011;56119;50.118;8.642;2023-09-19T02:31:18;4.35;;;2.38;;
69047;SDS011;56119;50.118;8.642;2023-09-19T02:33:44;3.70;;;2.55;;
69047;SDS011;56119;50.118;8.642;2023-09-19T02:36:29;5.07;;;2.33;;
69047;SDS011;56119;50.118;8.642;2023-09-19T02:38:55;3.83;;;1.98;;
69047;SDS011;56119;50.118;8.642;2023-09-19T02:41:22;3.33;;;1.90;;
69047;SDS011;56119;50.118;8.642;2023-09-19T02:43:49;3.08;;;2.13;;
69047;SDS011;56119;50.118;8.642;2023-09-19T02:46:15;6.20;;;3.03;;
69047;SDS011;56119;50.118;8.642;2023-09-19T02:51:30;4.68;;;2.20;;
69047;SDS011;56119;50.118;8.642;2023-09-19T02:54:02;5.50;;;2.63;;
69047;SDS011;56119;50.118;8.642;2023-09-19T02:56:36;4.35;;;2.90;;
69047;SDS011;56119;50.118;8.642;2023-09-19T02:59:02;5.95;;;2.78;;
69047;SDS011;56119;50.118;8.642;2023-09-19T03:01:37;4.63;;;2.67;;
69047;SDS011;56119;50.118;8.642;2023-09-19T03:04:04;7.55;;;3.15;;
69047;SDS011;56119;50.118;8.642;2023-09-19T03:06:34;3.60;;;2.30;;
69047;SDS011;56119;50.118;8.642;2023-09-19T03:12:07;4.82;;;2.70;;
69047;SDS011;56119;50.118;8.642;2023-09-19T03:14:33;5.97;;;2.70;;
69047;SDS011;56119;50.118;8.642;2023-09-19T03:17:00;6.30;;;2.83;;
69047;SDS011;56119;50.118;8.642;2023-09-19T03:19:29;5.38;;;2.33;;
69047;SDS011;56119;50.118;8.642;2023-09-19T03:21:55;3.92;;;2.67;;
69047;SDS011;56119;50.118;8.642;2023-09-19T03:24:22;3.72;;;2.30;;
69047;SDS011;56119;50.118;8.642;2023-09-19T03:26:48;4.65;;;2.38;;
69047;SDS011;56119;50.118;8.642;2023-09-19T03:29:14;2.85;;;2.20;;
69047;SDS011;56119;50.118;8.642;2023-09-19T03:31:42;4.47;;;2.15;;
69047;SDS011;56119;50.118;8.642;2023-09-19T03:34:08;4.93;;;2.70;;
69047;SDS011;56119;50.118;8.642;2023-09-19T03:36:34;7.18;;;2.95;;
69047;SDS011;56119;50.118;8.642;2023-09-19T03:39:00;4.22;;;2.40;;
69047;SDS011;56119;50.118;8.642;2023-09-19T03:41:26;4.43;;;2.75;;
69047;SDS011;56119;50.118;8.642;2023-09-19T03:43:52;5.43;;;2.70;;
69047;SDS011;56119;50.118;8.642;2023-09-19T03:46:18;4.47;;;2.70;;
69047;SDS011;56119;50.118;8.642;2023-09-19T03:48:44;5.53;;;3.05;;
69047;SDS011;56119;50.118;8.642;2023-09-19T03:51:10;7.57;;;2.97;;
69047;SDS011;56119;50.118;8.642;2023-09-19T03:53:36;3.72;;;2.85;;
69047;SDS011;56119;50.118;8.642;2023-09-19T03:56:02;6.15;;;3.30;;
69047;SDS011;56119;50.118;8.642;2023-09-19T03:58:28;6.60;;;2.92;;
69047;SDS011;56119;50.118;8.642;2023-09-19T04:00:55;4.22;;;2.75;;
69047;SDS011;56119;50.118;8.642;2023-09-19T04:03:21;6.53;;;2.63;;
69047;SDS011;56119;50.118;8.642;2023-09-19T04:05:47;3.85;;;2.47;;
69047;SDS011;56119;50.118;8.642;2023-09-19T04:08:13;4.40;;;2.55;;
69047;SDS011;56119;50.118;8.642;2023-09-19T04:10:41;5.38;;;2.60;;
69047;SDS011;56119;50.118;8.642;2023-09-19T04:13:08;4.75;;;2.90;;
69047;SDS011;56119;50.118;8.642;2023-09-19T04:15:34;6.10;;;2.65;;
69047;SDS011;56119;50.118;8.642;2023-09-19T04:18:00;6.20;;;2.63;;
69047;SDS011;56119;50.118;8.642;2023-09-19T04:20:28;5.40;;;2.60;;
69047;SDS011;56119;50.118;8.642;2023-09-19T04:22:54;3.13;;;2.20;;
69047;SDS011;56119;50.118;8.642;2023-09-19T04:25:20;6.47;;;2.95;;
69047;SDS011;56119;50.118;8.642;2023-09-19T04:27:46;5.10;;;2.33;;
69047;SDS011;56119;50.118;8.642;2023-09-19T04:30:12;4.35;;;2.00;;
69047;SDS011;56119;50.118;8.642;2023-09-19T04:32:39;3.83;;;2.20;;
69047;SDS011;56119;50.118;8.642;2023-09-19T04:38:09;4.53;;;2.05;;
69047;SDS011;56119;50.118;8.642;2023-09-19T04:40:47;5.80;;;2.00;;
69047;SDS011;56119;50.118;8.642;2023-09-19T04:43:26;3.10;;;1.75;;
69047;SDS011;56119;50.118;8.642;2023-09-19T04:45:52;4.22;;;2.45;;
69047;SDS011;56119;50.118;8.642;2023-09-19T04:48:20;4.35;;;2.20;;
69047;SDS011;56119;50.118;8.642;2023-09-19T04:50:56;3.40;;;2.03;;
69047;SDS011;56119;50.118;8.642;2023-09-19T04:53:22;7.78;;;2.60;;
69047;SDS011;56119;50.118;8.642;2023-09-19T04:55:51;3.92;;;2.05;;
69047;SDS011;56119;50.118;8.642;2023-09-19T04:58:18;3.42;;;2.38;;
69047;SDS011;56119;50.118;8.642;2023-09-19T05:01:03;4.93;;;2.45;;
69047;SDS011;56119;50.118;8.642;2023-09-19T05:03:29;3.13;;;2.22;;
69047;SDS011;56119;50.118;8.642;2023-09-19T05:06:07;3.72;;;2.22;;
69047;SDS011;56119;50.118;8.642;2023-09-19T05:08:39;7.07;;;2.65;;
69047;SDS011;56119;50.118;8.642;2023-09-19T05:14:27;3.33;;;2.20;;
69047;SDS011;56119;50.118;8.642;2023-09-19T05:16:53;5.85;;;2.25;;
69047;SDS011;56119;50.118;8.642;2023-09-19T05:22:07;4.38;;;2.60;;
69047;SDS011;56119;50.118;8.642;2023-09-19T05:24:37;5.20;;;2.33;;
69047;SDS011;56119;50.118;8.642;2023-09-19T05:27:07;5.10;;;2.00;;
69047;SDS011;56119;50.118;8.642;2023-09-19T05:29:33;4.28;;;2.00;;
69047;SDS011;56119;50.118;8.642;2023-09-19T05:32:05;6.22;;;2.67;;
69047;SDS011;56119;50.118;8.642;2023-09-19T05:34:31;4.53;;;2.38;;
69047;SDS011;56119;50.118;8.642;2023-09-19T05:36:57;4.38;;;2.15;;
69047;SDS011;56119;50.118;8.642;2023-09-19T05:39:23;5.10;;;2.25;;
69047;SDS011;56119;50.118;8.642;2023-09-19T05:41:49;6.28;;;2.55;;
69047;SDS011;56119;50.118;8.642;2023-09-19T05:44:15;5.05;;;2.28;;
69047;SDS011;56119;50.118;8.642;2023-09-19T05:46:41;6.55;;;2.78;;
69047;SDS011;56119;50.118;8.642;2023-09-19T05:49:07;8.65;;;3.00;;
69047;SDS011;56119;50.118;8.642;2023-09-19T05:51:33;6.53;;;2.63;;
69047;SDS011;56119;50.118;8.642;2023-09-19T05:54:00;3.85;;;2.00;;
69047;SDS011;56119;50.118;8.642;2023-09-19T05:56:26;3.58;;;1.90;;
69047;SDS011;56119;50.118;8.642;2023-09-19T05:58:52;4.20;;;2.08;;
69047;SDS011;56119;50.118;8.642;2023-09-19T06:01:18;7.75;;;2.45;;
69047;SDS011;56119;50.118;8.642;2023-09-19T06:03:44;7.30;;;2.72;;
69047;SDS011;56119;50.118;8.642;2023-09-19T06:06:10;6.82;;;2.60;;
69047;SDS011;56119;50.118;8.642;2023-09-19T06:08:36;6.57;;;2.08;;
69047;SDS011;56119;50.118;8.642;2023-09-19T06:11:02;4.38;;;2.30;;
69047;SDS011;56119;50.118;8.642;2023-09-19T06:13:32;4.90;;;2.45;;
69047;SDS011;56119;50.118;8.642;2023-09-19T06:15:58;6.72;;;2.65;;
69047;SDS011;56119;50.118;8.642;2023-09-19T06:18:29;5.60;;;2.30;;
69047;SDS011;56119;50.118;8.642;2023-09-19T06:20:58;5.45;;;2.55;;
69047;SDS011;56119;50.118;8.642;2023-09-19T06:23:24;3.53;;;2.08;;
69047;SDS011;56119;50.118;8.642;2023-09-19T06:25:51;4.80;;;2.63;;
69047;SDS011;56119;50.118;8.642;2023-09-19T06:28:18;7.07;;;2.70;;
69047;SDS011;56119;50.118;8.642;2023-09-19T06:30:49;5.90;;;2.67;;
69047;SDS011;56119;50.118;8.642;2023-09-19T06:33:15;6.07;;;2.92;;
69047;SDS011;56119;50.118;8.642;2023-09-19T06:35:42;6.45;;;2.88;;
69047;SDS011;56119;50.118;8.642;2023-09-19T06:38:09;8.27;;;3.03;;
69047;SDS011;56119;50.118;8.642;2023-09-19T06:40:38;8.20;;;3.60;;
69047;SDS011;56119;50.118;8.642;2023-09-19T06:43:05;5.78;;;3.40;;
69047;SDS011;56119;50.118;8.642;2023-09-19T06:45:31;5.80;;;3.30;;
69047;SDS011;56119;50.118;8.642;2023-09-19T06:47:57;5.55;;;3.08;;
69047;SDS011;56119;50.118;8.642;2023-09-19T06:50:25;4.80;;;2.78;;
69047;SDS011;56119;50.118;8.642;2023-09-19T06:52:54;5.93;;;3.00;;
69047;SDS011;56119;50.118;8.642;2023-09-19T06:55:22;5.30;;;2.35;;
69047;SDS011;56119;50.118;8.642;2023-09-19T06:57:52;5.10;;;3.00;;
69047;SDS011;56119;50.118;8.642;2023-09-19T07:00:22;6.40;;;2.80;;
69047;SDS011;56119;50.118;8.642;2023-09-19T07:03:00;6.70;;;3.25;;
69047;SDS011;56119;50.118;8.642;2023-09-19T07:05:29;7.50;;;2.72;;
69047;SDS011;56119;50.118;8.642;2023-09-19T07:07:56;6.70;;;2.92;;
69047;SDS011;56119;50.118;8.642;2023-09-19T07:10:26;7.95;;;3.22;;
69047;SDS011;56119;50.118;8.642;2023-09-19T07:13:01;5.45;;;3.17;;
69047;SDS011;56119;50.118;8.642;2023-09-19T07:15:28;6.43;;;3.20;;
69047;SDS011;56119;50.118;8.642;2023-09-19T07:18:04;6.68;;;2.50;;
69047;SDS011;56119;50.118;8.642;2023-09-19T07:20:30;6.68;;;2.45;;
69047;SDS011;56119;50.118;8.642;2023-09-19T07:22:57;7.55;;;2.53;;
69047;SDS011;56119;50.118;8.642;2023-09-19T07:25:27;5.65;;;2.25;;
69047;SDS011;56119;50.118;8.642;2023-09-19T07:27:56;6.88;;;3.28;;
69047;SDS011;56119;50.118;8.642;2023-09-19T07:30:24;6.78;;;1.95;;
69047;SDS011;56119;50.118;8.642;2023-09-19T07:32:51;5.80;;;1.65;;
69047;SDS011;56119;50.118;8.642;2023-09-19T07:35:17;5.88;;;2.08;;
69047;SDS011;56119;50.118;8.642;2023-09-19T07:37:45;5.95;;;2.17;;
69047;SDS011;56119;50.118;8.642;2023-09-19T07:40:15;6.43;;;1.70;;
69047;SDS011;56119;50.118;8.642;2023-09-19T07:42:41;9.15;;;2.00;;
69047;SDS011;56119;50.118;8.642;2023-09-19T07:45:07;3.88;;;1.80;;
69047;SDS011;56119;50.118;8.642;2023-09-19T07:47:34;4.82;;;1.65;;
69047;SDS011;56119;50.118;8.642;2023-09-19T07:50:01;5.63;;;1.67;;
69047;SDS011;56119;50.118;8.642;2023-09-19T07:52:27;6.03;;;2.05;;
69047;SDS011;56119;50.118;8.642;2023-09-19T07:54:54;3.83;;;1.77;;
69047;SDS011;56119;50.118;8.642;2023-09-19T07:57:20;4.38;;;1.50;;
69047;SDS011;56119;50.118;8.642;2023-09-19T07:59:46;2.83;;;1.27;;
69047;SDS011;56119;50.118;8.642;2023-09-19T08:02:12;4.43;;;1.45;;
69047;SDS011;56119;50.118;8.642;2023-09-19T08:04:44;3.88;;;1.33;;
69047;SDS011;56119;50.118;8.642;2023-09-19T08:07:14;3.95;;;2.05;;
69047;SDS011;56119;50.118;8.642;2023-09-19T08:09:40;6.28;;;1.60;;
69047;SDS011;56119;50.118;8.642;2023-09-19T08:12:06;4.47;;;1.60;;
69047;SDS011;56119;50.118;8.642;2023-09-19T08:14:35;6.60;;;1.90;;
69047;SDS011;56119;50.118;8.642;2023-09-19T08:17:01;4.55;;;1.65;;
69047;SDS011;56119;50.118;8.642;2023-09-19T08:19:27;6.53;;;1.63;;
69047;SDS011;56119;50.118;8.642;2023-09-19T08:21:57;7.82;;;1.65;;
69047;SDS011;56119;50.118;8.642;2023-09-19T08:24:27;3.85;;;1.80;;
69047;SDS011;56119;50.118;8.642;2023-09-19T08:26:54;5.90;;;2.08;;
69047;SDS011;56119;50.118;8.642;2023-09-19T08:29:20;5.65;;;1.85;;
69047;SDS011;56119;50.118;8.642;2023-09-19T08:31:46;4.60;;;2.03;;
69047;SDS011;56119;50.118;8.642;2023-09-19T08:34:14;6.07;;;2.35;;
69047;SDS011;56119;50.118;8.642;2023-09-19T08:36:40;4.10;;;1.65;;
69047;SDS011;56119;50.118;8.642;2023-09-19T08:39:09;7.38;;;1.70;;
69047;SDS011;56119;50.118;8.642;2023-09-19T08:41:36;5.22;;;2.05;;
69047;SDS011;56119;50.118;8.642;2023-09-19T08:44:02;5.93;;;2.25;;
69047;SDS011;56119;50.118;8.642;2023-09-19T08:46:28;4.03;;;1.88;;
69047;SDS011;56119;50.118;8.642;2023-09-19T08:51:26;3.50;;;1.50;;
69047;SDS011;56119;50.118;8.642;2023-09-19T08:56:32;5.60;;;2.17;;
69047;SDS011;56119;50.118;8.642;2023-09-19T08:59:02;6.65;;;2.35;;
69047;SDS011;56119;50.118;8.642;2023-09-19T09:01:36;6.78;;;1.88;;
69047;SDS011;56119;50.118;8.642;2023-09-19T09:04:02;5.45;;;1.98;;
69047;SDS011;56119;50.118;8.642;2023-09-19T09:06:28;5.97;;;1.95;;
69047;SDS011;56119;50.118;8.642;2023-09-19T09:08:55;7.28;;;1.73;;
69047;SDS011;56119;50.118;8.642;2023-09-19T09:11:21;7.28;;;2.08;;
69047;SDS011;56119;50.118;8.642;2023-09-19T09:13:51;3.75;;;1.60;;
69047;SDS011;56119;50.118;8.642;2023-09-19T09:16:17;5.05;;;1.27;;
69047;SDS011;56119;50.118;8.642;2023-09-19T09:18:43;4.93;;;1.98;;
69047;SDS011;56119;50.118;8.642;2023-09-19T09:21:10;9.82;;;2.05;;
69047;SDS011;56119;50.118;8.642;2023-09-19T09:23:36;6.47;;;1.67;;
69047;SDS011;56119;50.118;8.642;2023-09-19T09:26:02;4.90;;;1.63;;
69047;SDS011;56119;50.118;8.642;2023-09-19T09:28:30;7.43;;;2.28;;
69047;SDS011;56119;50.118;8.642;2023-09-19T09:30:58;3.70;;;1.80;;
69047;SDS011;56119;50.118;8.642;2023-09-19T09:33:24;7.45;;;2.10;;
69047;SDS011;56119;50.118;8.642;2023-09-19T09:36:00;6.57;;;1.85;;
69047;SDS011;56119;50.118;8.642;2023-09-19T09:38:28;5.03;;;1.90;;
69047;SDS011;56119;50.118;8.642;2023-09-19T09:40:57;3.60;;;1.98;;
69047;SDS011;56119;50.118;8.642;2023-09-19T09:43:30;6.68;;;1.65;;
69047;SDS011;56119;50.118;8.642;2023-09-19T09:46:06;6.97;;;2.22;;
69047;SDS011;56119;50.118;8.642;2023-09-19T09:49:00;7.00;;;1.83;;
69047;SDS011;56119;50.118;8.642;2023-09-19T09:51:58;7.35;;;2.10;;
69047;SDS011;56119;50.118;8.642;2023-09-19T09:54:25;9.45;;;1.90;;
69047;SDS011;56119;50.118;8.642;2023-09-19T09:57:05;7.07;;;1.73;;
69047;SDS011;56119;50.118;8.642;2023-09-19T09:59:58;7.53;;;2.70;;
69047;SDS011;56119;50.118;8.642;2023-09-19T10:02:41;6.03;;;1.83;;
69047;SDS011;56119;50.118;8.642;2023-09-19T10:05:17;7.95;;;2.58;;
69047;SDS011;56119;50.118;8.642;2023-09-19T10:07:47;7.80;;;2.83;;
69047;SDS011;56119;50.118;8.642;2023-09-19T10:13:12;7.03;;;2.53;;
69047;SDS011;56119;50.118;8.642;2023-09-19T10:15:42;6.43;;;2.28;;
69047;SDS011;56119;50.118;8.642;2023-09-19T10:18:15;6.88;;;2.67;;
69047;SDS011;56119;50.118;8.642;2023-09-19T10:20:43;10.13;;;2.58;;
69047;SDS011;56119;50.118;8.642;2023-09-19T10:23:11;4.90;;;2.17;;
69047;SDS011;56119;50.118;8.642;2023-09-19T10:25:40;7.85;;;2.40;;
69047;SDS011;56119;50.118;8.642;2023-09-19T10:28:07;6.72;;;2.10;;
69047;SDS011;56119;50.118;8.642;2023-09-19T10:30:45;6.65;;;2.10;;
69047;SDS011;56119;50.118;8.642;2023-09-19T10:33:13;7.45;;;1.65;;
69047;SDS011;56119;50.118;8.642;2023-09-19T10:35:40;9.13;;;2.78;;
69047;SDS011;56119;50.118;8.642;2023-09-19T10:38:07;7.13;;;2.20;;
69047;SDS011;56119;50.118;8.642;2023-09-19T10:40:35;9.15;;;2.58;;
69047;SDS011;56119;50.118;8.642;2023-09-19T10:43:05;9.57;;;2.45;;
69047;SDS011;56119;50.118;8.642;2023-09-19T10:45:32;15.50;;;2.47;;
69047;SDS011;56119;50.118;8.642;2023-09-19T10:48:02;6.38;;;1.90;;
69047;SDS011;56119;50.118;8.642;2023-09-19T10:50:51;7.05;;;2.33;;
69047;SDS011;56119;50.118;8.642;2023-09-19T10:53:15;6.75;;;2.60;;
69047;SDS011;56119;50.118;8.642;2023-09-19T10:55:47;4.65;;;1.67;;
69047;SDS011;56119;50.118;8.642;2023-09-19T10:58:23;10.05;;;2.42;;
69047;SDS011;56119;50.118;8.642;2023-09-19T11:00:53;9.77;;;2.40;;
69047;SDS011;56119;50.118;8.642;2023-09-19T11:03:20;7.72;;;2.00;;
69047;SDS011;56119;50.118;8.642;2023-09-19T11:06:04;8.88;;;2.83;;
69047;SDS011;56119;50.118;8.642;2023-09-19T11:11:43;6.25;;;2.20;;
69047;SDS011;56119;50.118;8.642;2023-09-19T11:14:15;5.80;;;2.28;;
69047;SDS011;56119;50.118;8.642;2023-09-19T11:20:14;7.95;;;2.00;;
69047;SDS011;56119;50.118;8.642;2023-09-19T11:22:13;6.47;;;2.33;;
69047;SDS011;56119;50.118;8.642;2023-09-19T11:24:39;8.02;;;1.98;;
69047;SDS011;56119;50.118;8.642;2023-09-19T11:27:10;8.10;;;2.40;;
69047;SDS011;56119;50.118;8.642;2023-09-19T11:29:40;6.88;;;2.00;;
69047;SDS011;56119;50.118;8.642;2023-09-19T11:32:06;8.73;;;2.33;;
69047;SDS011;56119;50.118;8.642;2023-09-19T11:39:39;5.07;;;1.95;;
69047;SDS011;56119;50.118;8.642;2023-09-19T11:44:52;9.52;;;1.80;;
69047;SDS011;56119;50.118;8.642;2023-09-19T11:47:20;7.88;;;2.42;;
69047;SDS011;56119;50.118;8.642;2023-09-19T11:49:49;8.00;;;2.42;;
69047;SDS011;56119;50.118;8.642;2023-09-19T11:52:21;6.68;;;2.05;;
69047;SDS011;56119;50.118;8.642;2023-09-19T11:54:55;7.10;;;2.08;;
69047;SDS011;56119;50.118;8.642;2023-09-19T11:57:24;6.10;;;2.10;;
69047;SDS011;56119;50.118;8.642;2023-09-19T11:59:51;4.85;;;2.17;;
69047;SDS011;56119;50.118;8.642;2023-09-19T12:02:27;7.25;;;1.92;;
69047;SDS011;56119;50.118;8.642;2023-09-19T12:04:59;5.65;;;1.73;;
69047;SDS011;56119;50.118;8.642;2023-09-19T12:07:25;9.10;;;1.77;;
69047;SDS011;56119;50.118;8.642;2023-09-19T12:10:02;6.50;;;2.05;;
69047;SDS011;56119;50.118;8.642;2023-09-19T12:12:29;7.50;;;2.00;;
69047;SDS011;56119;50.118;8.642;2023-09-19T12:14:57;8.00;;;2.33;;
69047;SDS011;56119;50.118;8.642;2023-09-19T12:17:24;6.05;;;1.70;;
69047;SDS011;56119;50.118;8.642;2023-09-19T12:20:01;7.10;;;2.08;;
69047;SDS011;56119;50.118;8.642;2023-09-19T12:22:44;6.15;;;2.08;;
69047;SDS011;56119;50.118;8.642;2023-09-19T12:25:11;4.82;;;1.73;;
69047;SDS011;56119;50.118;8.642;2023-09-19T12:30:11;8.23;;;2.30;;
69047;SDS011;56119;50.118;8.642;2023-09-19T12:32:39;8.18;;;1.83;;
69047;SDS011;56119;50.118;8.642;2023-09-19T12:35:08;7.60;;;1.95;;
69047;SDS011;56119;50.118;8.642;2023-09-19T12:37:42;4.75;;;1.98;;
69047;SDS011;56119;50.118;8.642;2023-09-19T12:40:10;9.63;;;2.80;;
69047;SDS011;56119;50.118;8.642;2023-09-19T12:42:46;8.07;;;2.42;;
69047;SDS011;56119;50.118;8.642;2023-09-19T12:45:12;5.00;;;1.85;;
69047;SDS011;56119;50.118;8.642;2023-09-19T12:47:40;10.07;;;2.15;;
69047;SDS011;56119;50.118;8.642;2023-09-19T12:50:12;5.35;;;1.88;;
69047;SDS011;56119;50.118;8.642;2023-09-19T12:55:30;8.15;;;2.30;;
69047;SDS011;56119;50.118;8.642;2023-09-19T12:58:08;5.53;;;1.80;;
69047;SDS011;56119;50.118;8.642;2023-09-19T13:00:40;10.65;;;2.45;;
69047;SDS011;56119;50.118;8.642;2023-09-19T13:03:11;6.03;;;1.73;;
69047;SDS011;56119;50.118;8.642;2023-09-19T13:05:50;7.80;;;2.30;;
69047;SDS011;56119;50.118;8.642;2023-09-19T13:08:17;7.10;;;1.80;;
69047;SDS011;56119;50.118;8.642;2023-09-19T13:13:26;4.50;;;1.55;;
69047;SDS011;56119;50.118;8.642;2023-09-19T13:15:52;5.60;;;1.70;;
69047;SDS011;56119;50.118;8.642;2023-09-19T13:18:19;5.75;;;2.17;;
69047;SDS011;56119;50.118;8.642;2023-09-19T13:21:05;4.78;;;1.70;;
69047;SDS011;56119;50.118;8.642;2023-09-19T13:23:31;4.65;;;1.58;;
69047;SDS011;56119;50.118;8.642;2023-09-19T13:25:57;6.80;;;2.22;;
69047;SDS011;56119;50.118;8.642;2023-09-19T13:28:23;8.27;;;2.28;;
69047;SDS011;56119;50.118;8.642;2023-09-19T13:30:49;5.60;;;2.35;;
69047;SDS011;56119;50.118;8.642;2023-09-19T13:33:15;6.68;;;1.88;;
69047;SDS011;56119;50.118;8.642;2023-09-19T13:35:46;7.25;;;1.95;;
69047;SDS011;56119;50.118;8.642;2023-09-19T13:38:13;6.78;;;1.38;;
69047;SDS011;56119;50.118;8.642;2023-09-19T13:40:39;3.00;;;1.30;;
69047;SDS011;56119;50.118;8.642;2023-09-19T13:43:07;6.25;;;1.67;;
69047;SDS011;56119;50.118;8.642;2023-09-19T13:45:33;6.93;;;1.70;;
69047;SDS011;56119;50.118;8.642;2023-09-19T13:47:59;4.03;;;1.63;;
69047;SDS011;56119;50.118;8.642;2023-09-19T13:50:26;4.68;;;1.52;;
69047;SDS011;56119;50.118;8.642;2023-09-19T13:52:54;3.47;;;1.67;;
69047;SDS011;56119;50.118;8.642;2023-09-19T13:55:20;5.53;;;1.48;;
69047;SDS011;56119;50.118;8.642;2023-09-19T13:57:47;6.32;;;2.35;;
69047;SDS011;56119;50.118;8.642;2023-09-19T14:00:17;4.63;;;1.42;;
69047;SDS011;56119;50.118;8.642;2023-09-19T14:02:44;6.68;;;2.30;;
69047;SDS011;56119;50.118;8.642;2023-09-19T14:05:10;3.42;;;1.63;;
69047;SDS011;56119;50.118;8.642;2023-09-19T14:07:40;4.90;;;1.63;;
69047;SDS011;56119;50.118;8.642;2023-09-19T14:10:06;5.32;;;1.42;;
69047;SDS011;56119;50.118;8.642;2023-09-19T14:12:33;5.10;;;1.45;;
69047;SDS011;56119;50.118;8.642;2023-09-19T14:14:59;4.43;;;1.80;;
69047;SDS011;56119;50.118;8.642;2023-09-19T14:17:26;3.97;;;1.52;;
69047;SDS011;56119;50.118;8.642;2023-09-19T14:19:53;3.33;;;1.60;;
69047;SDS011;56119;50.118;8.642;2023-09-19T14:22:19;4.05;;;1.40;;
69047;SDS011;56119;50.118;8.642;2023-09-19T14:24:44;4.32;;;1.90;;
69047;SDS011;56119;50.118;8.642;2023-09-19T14:27:10;6.53;;;1.60;;
69047;SDS011;56119;50.118;8.642;2023-09-19T14:29:36;3.40;;;1.40;;
69047;SDS011;56119;50.118;8.642;2023-09-19T14:32:03;4.57;;;1.10;;
69047;SDS011;56119;50.118;8.642;2023-09-19T14:34:29;3.92;;;1.58;;
69047;SDS011;56119;50.118;8.642;2023-09-19T14:36:55;3.05;;;1.30;;
69047;SDS011;56119;50.118;8.642;2023-09-19T14:39:21;4.57;;;1.27;;
69047;SDS011;56119;50.118;8.642;2023-09-19T14:41:48;3.83;;;1.23;;
69047;SDS011;56119;50.118;8.642;2023-09-19T14:44:14;4.25;;;1.30;;
69047;SDS011;56119;50.118;8.642;2023-09-19T14:46:41;4.10;;;1.70;;
69047;SDS011;56119;50.118;8.642;2023-09-19T14:49:09;7.55;;;2.00;;
69047;SDS011;56119;50.118;8.642;2023-09-19T14:51:35;6.53;;;1.60;;
69047;SDS011;56119;50.118;8.642;2023-09-19T14:54:02;4.90;;;1.58;;
69047;SDS011;56119;50.118;8.642;2023-09-19T14:56:28;5.60;;;1.77;;
69047;SDS011;56119;50.118;8.642;2023-09-19T14:58:55;6.70;;;1.95;;
69047;SDS011;56119;50.118;8.642;2023-09-19T15:01:21;5.65;;;1.33;;
69047;SDS011;56119;50.118;8.642;2023-09-19T15:03:47;5.07;;;1.70;;
69047;SDS011;56119;50.118;8.642;2023-09-19T15:06:14;5.15;;;1.30;;
69047;SDS011;56119;50.118;8.642;2023-09-19T15:08:51;5.20;;;1.38;;
69047;SDS011;56119;50.118;8.642;2023-09-19T15:11:17;6.20;;;1.30;;
69047;SDS011;56119;50.118;8.642;2023-09-19T15:13:43;4.85;;;1.35;;
69047;SDS011;56119;50.118;8.642;2023-09-19T15:16:12;5.85;;;1.85;;
69047;SDS011;56119;50.118;8.642;2023-09-19T15:18:42;7.97;;;1.70;;
69047;SDS011;56119;50.118;8.642;2023-09-19T15:21:11;7.13;;;1.23;;
69047;SDS011;56119;50.118;8.642;2023-09-19T15:23:39;6.53;;;1.50;;
69047;SDS011;56119;50.118;8.642;2023-09-19T15:26:06;6.07;;;1.77;;
69047;SDS011;56119;50.118;8.642;2023-09-19T15:28:36;3.00;;;1.20;;
69047;SDS011;56119;50.118;8.642;2023-09-19T15:31:20;5.03;;;1.60;;
69047;SDS011;56119;50.118;8.642;2023-09-19T15:33:46;4.40;;;1.63;;
69047;SDS011;56119;50.118;8.642;2023-09-19T15:36:13;3.97;;;1.80;;
69047;SDS011;56119;50.118;8.642;2023-09-19T15:41:45;2.63;;;1.27;;
69047;SDS011;56119;50.118;8.642;2023-09-19T15:50:20;3.53;;;1.33;;
69047;SDS011;56119;50.118;8.642;2023-09-19T15:52:52;3.42;;;1.00;;
69047;SDS011;56119;50.118;8.642;2023-09-19T15:55:38;2.42;;;1.27;;
69047;SDS011;56119;50.118;8.642;2023-09-19T15:58:07;3.75;;;1.17;;
69047;SDS011;56119;50.118;8.642;2023-09-19T16:00:34;5.70;;;1.40;;
69047;SDS011;56119;50.118;8.642;2023-09-19T16:03:01;6.07;;;1.42;;
69047;SDS011;56119;50.118;8.642;2023-09-19T16:05:27;2.20;;;1.00;;